Cherryvale, Kansas
Current Conditions -  °F | °C
As of 3:52 PM on Wednesday 22 Oct 2014 (Local Time) from KPPF Reporting Station
Few Clouds Few Clouds  
Wind Chill: 78°   Ceiling: Unl
Heat Index: 79°   Visibility: 10mi
Dew Point: 58°   Wind: 8mph
Humidity: 50%   Direction: 180°S
Pressure: 30.11"   Gusts: 17mph
Location:  37.27°N, 95.55°W
Report Text: KPPF 222052Z AUTO 18007G15KT 10SM FEW045 FEW065 26/14 A3011 RMK AO2 SLP188 T02560144 56017
Loading
Personal Weather Stations






























Interactive Weather Map
Tropical Storm Tracking
New forecast layout! Learn more

10-Day Weather Forecast

Advertisements
Track Severe Weather on mobile